Time;durP1;ratioP1;P1;durP2;ratioP2;P2;SDS_P1;SDS_P2;PMS_P1;PMS_P2;Temp;Humidity;BMP_temperature;BMP_pressure;BME280_temperature;BME280_humidity;BME280_pressure;Samples;Min_cycle;Max_cycle;Signal;HPM_P1;HPM_P2
2021/07/03 00:01:56;;;;;;;5.18;3.25;;;;;;;;;;5032289;28;20531;-71
2021/07/03 00:04:23;;;;;;;7.18;3.38;;;;;;;;;;5034149;28;20037;-71
2021/07/03 00:06:51;;;;;;;5.53;3.40;;;;;;;;;;5031388;28;20497;-72
2021/07/03 00:09:18;;;;;;;7.55;3.10;;;;;;;;;;5029195;28;20493;-71
2021/07/03 00:11:46;;;;;;;8.07;3.40;;;;;;;;;;5037455;28;20033;-71
2021/07/03 00:14:13;;;;;;;3.92;2.88;;;;;;;;;;5029430;28;20055;-71
2021/07/03 00:16:40;;;;;;;5.43;3.25;;;;;;;;;;5027795;28;20113;-72
2021/07/03 00:19:08;;;;;;;5.32;4.05;;;;;;;;;;5027841;28;20080;-74
2021/07/03 00:21:35;;;;;;;6.78;3.50;;;;;;;;;;5028631;28;20118;-73
2021/07/03 00:24:02;;;;;;;6.22;3.20;;;;;;;;;;5032952;28;20041;-74
2021/07/03 00:26:29;;;;;;;5.40;3.53;;;;;;;;;;5033478;28;20038;-73
2021/07/03 00:28:56;;;;;;;5.65;3.55;;;;;;;;;;5039194;28;20482;-74
2021/07/03 00:31:23;;;;;;;7.05;4.13;;;;;;;;;;5026164;28;20033;-74
2021/07/03 00:33:50;;;;;;;7.05;4.57;;;;;;;;;;5040042;28;20224;-72
2021/07/03 00:36:17;;;;;;;5.38;3.50;;;;;;;;;;5042977;28;20135;-72
2021/07/03 00:38:44;;;;;;;8.05;4.18;;;;;;;;;;5049895;28;20064;-73
2021/07/03 00:41:12;;;;;;;10.40;4.90;;;;;;;;;;5043444;28;20021;-72
2021/07/03 00:43:39;;;;;;;13.10;5.97;;;;;;;;;;5040765;28;20128;-73
2021/07/03 00:46:06;;;;;;;8.60;4.63;;;;;;;;;;5044704;28;20099;-73
2021/07/03 00:48:33;;;;;;;8.38;4.07;;;;;;;;;;5048989;28;20041;-73
2021/07/03 00:51:00;;;;;;;8.82;4.55;;;;;;;;;;5033708;28;20029;-73
2021/07/03 00:53:28;;;;;;;7.30;3.63;;;;;;;;;;5022123;28;20038;-73
2021/07/03 00:55:55;;;;;;;7.20;4.90;;;;;;;;;;5045091;28;20021;-73
2021/07/03 00:58:23;;;;;;;7.03;3.28;;;;;;;;;;5044213;28;20051;-73
2021/07/03 01:00:50;;;;;;;7.15;4.40;;;;;;;;;;5034257;28;20087;-72
2021/07/03 01:03:17;;;;;;;7.05;3.80;;;;;;;;;;5022506;28;20033;-72
2021/07/03 01:05:44;;;;;;;8.32;3.67;;;;;;;;;;5041234;28;21948;-73
2021/07/03 01:08:11;;;;;;;10.27;4.88;;;;;;;;;;5047074;28;20448;-73
2021/07/03 01:10:38;;;;;;;5.60;3.17;;;;;;;;;;5036163;28;20028;-73
2021/07/03 01:13:06;;;;;;;5.20;3.38;;;;;;;;;;5032879;28;20551;-74
2021/07/03 01:15:33;;;;;;;7.13;2.90;;;;;;;;;;5026063;28;20026;-73
2021/07/03 01:18:00;;;;;;;6.60;2.42;;;;;;;;;;5037587;28;20048;-73
2021/07/03 01:20:27;;;;;;;8.23;2.50;;;;;;;;;;5019019;28;20017;-73
2021/07/03 01:22:54;;;;;;;4.57;2.58;;;;;;;;;;5014923;28;20014;-73
2021/07/03 01:25:22;;;;;;;4.47;2.10;;;;;;;;;;5018797;28;20022;-73
2021/07/03 01:28:03;;;;;;;3.67;2.05;;;;;;;;;;5039996;28;20387;-73
2021/07/03 01:30:30;;;;;;;7.32;2.65;;;;;;;;;;5029419;28;20034;-72
2021/07/03 01:32:58;;;;;;;3.72;1.73;;;;;;;;;;5014760;28;20036;-71
2021/07/03 01:35:34;;;;;;;6.10;1.52;;;;;;;;;;5047656;28;20790;-72
2021/07/03 01:38:01;;;;;;;4.75;1.08;;;;;;;;;;5057895;28;20036;-71
2021/07/03 01:40:28;;;;;;;4.68;1.38;;;;;;;;;;5031084;28;20032;-72
2021/07/03 01:42:55;;;;;;;4.45;1.45;;;;;;;;;;5029195;28;20079;-71
2021/07/03 01:45:25;;;;;;;2.67;1.20;;;;;;;;;;5031565;28;20033;-71
2021/07/03 01:47:52;;;;;;;2.55;0.75;;;;;;;;;;5036511;28;20036;-71
2021/07/03 01:50:20;;;;;;;2.35;0.50;;;;;;;;;;5062231;28;20428;-71
2021/07/03 01:52:47;;;;;;;1.60;0.40;;;;;;;;;;5056912;28;20021;-72
2021/07/03 01:55:14;;;;;;;1.08;0.63;;;;;;;;;;5039430;28;20025;-70
2021/07/03 01:57:41;;;;;;;1.42;0.85;;;;;;;;;;5057602;28;20029;-72
2021/07/03 02:00:10;;;;;;;2.08;0.80;;;;;;;;;;5038393;28;20048;-72
2021/07/03 02:02:37;;;;;;;3.72;1.02;;;;;;;;;;5040591;28;20021;-72
2021/07/03 02:05:05;;;;;;;2.47;0.50;;;;;;;;;;5035714;28;20059;-71
2021/07/03 02:07:32;;;;;;;2.30;0.50;;;;;;;;;;5030782;28;20371;-72
2021/07/03 02:10:00;;;;;;;1.85;0.47;;;;;;;;;;5059304;28;20104;-72
2021/07/03 02:12:27;;;;;;;2.10;0.50;;;;;;;;;;5050211;28;20382;-73
2021/07/03 02:14:54;;;;;;;2.45;0.60;;;;;;;;;;5033549;28;20110;-73
2021/07/03 02:17:21;;;;;;;4.97;1.10;;;;;;;;;;5046714;28;20036;-70
2021/07/03 02:19:48;;;;;;;2.55;0.80;;;;;;;;;;5056084;28;20017;-74
2021/07/03 02:22:15;;;;;;;2.40;0.80;;;;;;;;;;5055863;28;20117;-73
2021/07/03 02:24:43;;;;;;;4.13;0.90;;;;;;;;;;5058144;28;20021;-73
2021/07/03 02:27:10;;;;;;;1.80;1.00;;;;;;;;;;5052629;28;20116;-73
2021/07/03 02:29:37;;;;;;;2.40;0.80;;;;;;;;;;5042613;28;20028;-73
2021/07/03 02:32:04;;;;;;;2.17;0.77;;;;;;;;;;5049481;28;20384;-73
2021/07/03 02:34:31;;;;;;;5.78;0.80;;;;;;;;;;5024443;28;20045;-73
2021/07/03 02:36:58;;;;;;;2.63;0.43;;;;;;;;;;5050967;28;20417;-73
2021/07/03 02:39:25;;;;;;;3.22;0.73;;;;;;;;;;5064477;28;20023;-73
2021/07/03 02:41:53;;;;;;;3.33;0.52;;;;;;;;;;5057543;28;20047;-72
2021/07/03 02:44:20;;;;;;;1.92;0.30;;;;;;;;;;5061889;28;20464;-73
2021/07/03 02:46:47;;;;;;;4.72;0.98;;;;;;;;;;5057425;28;20032;-73
2021/07/03 02:49:14;;;;;;;1.98;0.45;;;;;;;;;;5058221;28;20111;-73
2021/07/03 02:51:42;;;;;;;1.73;0.47;;;;;;;;;;5037609;28;20100;-73
2021/07/03 02:54:09;;;;;;;1.40;0.40;;;;;;;;;;5047706;28;20052;-73
2021/07/03 02:56:36;;;;;;;2.13;0.30;;;;;;;;;;5048834;28;20027;-74
2021/07/03 02:59:03;;;;;;;2.45;0.30;;;;;;;;;;5048076;28;20104;-73
2021/07/03 03:01:30;;;;;;;2.40;0.40;;;;;;;;;;5050636;28;20025;-73
2021/07/03 03:03:57;;;;;;;1.63;0.25;;;;;;;;;;5053144;28;20033;-73
2021/07/03 03:06:24;;;;;;;0.82;0.20;;;;;;;;;;5032480;28;20370;-74
2021/07/03 03:08:51;;;;;;;2.55;0.30;;;;;;;;;;5049435;28;20029;-73
2021/07/03 03:11:19;;;;;;;0.80;0.30;;;;;;;;;;5052179;28;20026;-74
2021/07/03 03:13:48;;;;;;;1.92;0.20;;;;;;;;;;5040939;28;20030;-74
2021/07/03 03:16:16;;;;;;;0.73;0.20;;;;;;;;;;5053091;28;20052;-73
2021/07/03 03:18:43;;;;;;;1.95;0.30;;;;;;;;;;5039406;28;20045;-73
2021/07/03 03:21:10;;;;;;;2.58;0.50;;;;;;;;;;5054431;28;20029;-73
2021/07/03 03:23:37;;;;;;;1.98;0.30;;;;;;;;;;5055498;28;20154;-73
2021/07/03 03:26:04;;;;;;;3.05;0.30;;;;;;;;;;5054125;28;20071;-73
2021/07/03 03:28:31;;;;;;;2.35;0.40;;;;;;;;;;5045052;28;20025;-73
2021/07/03 03:30:58;;;;;;;2.38;0.30;;;;;;;;;;5046475;28;20010;-72
2021/07/03 03:33:25;;;;;;;3.60;0.40;;;;;;;;;;5060570;28;20510;-72
2021/07/03 03:35:52;;;;;;;1.38;0.30;;;;;;;;;;5054450;28;20021;-72
2021/07/03 03:38:20;;;;;;;1.23;0.30;;;;;;;;;;5073240;28;20056;-72
2021/07/03 03:40:47;;;;;;;1.67;0.30;;;;;;;;;;5068299;28;20381;-72
2021/07/03 03:43:14;;;;;;;1.13;0.30;;;;;;;;;;5072936;28;20024;-72
2021/07/03 03:45:41;;;;;;;1.40;0.43;;;;;;;;;;5066805;28;20047;-72
2021/07/03 03:48:08;;;;;;;2.35;0.85;;;;;;;;;;5033815;28;20029;-72
2021/07/03 03:50:36;;;;;;;1.02;0.30;;;;;;;;;;5051290;28;20027;-72
2021/07/03 03:53:04;;;;;;;0.75;0.22;;;;;;;;;;5066550;28;20482;-72
2021/07/03 03:55:31;;;;;;;1.30;0.30;;;;;;;;;;5023973;28;20033;-72
2021/07/03 03:57:58;;;;;;;3.45;0.40;;;;;;;;;;5064496;28;20067;-72
2021/07/03 04:00:25;;;;;;;6.95;0.52;;;;;;;;;;5036129;28;20056;-72
2021/07/03 04:02:52;;;;;;;2.05;0.30;;;;;;;;;;5066023;28;20027;-74
2021/07/03 04:05:20;;;;;;;0.75;0.30;;;;;;;;;;5023382;28;20111;-73
2021/07/03 04:07:47;;;;;;;4.05;0.40;;;;;;;;;;5035891;28;20025;-74
2021/07/03 04:10:15;;;;;;;3.60;0.90;;;;;;;;;;5039722;28;20457;-73
2021/07/03 04:12:43;;;;;;;1.70;0.30;;;;;;;;;;5042265;28;20028;-73
2021/07/03 04:15:10;;;;;;;1.85;0.50;;;;;;;;;;5038598;28;20584;-73
2021/07/03 04:17:38;;;;;;;1.25;0.40;;;;;;;;;;5038101;28;20071;-72
2021/07/03 04:20:06;;;;;;;6.45;0.60;;;;;;;;;;5036954;28;20029;-73
2021/07/03 04:22:33;;;;;;;3.47;0.60;;;;;;;;;;5039274;28;20025;-72
2021/07/03 04:25:00;;;;;;;2.47;0.50;;;;;;;;;;5040934;28;20028;-73
2021/07/03 04:27:28;;;;;;;1.90;0.40;;;;;;;;;;5038166;28;20606;-72
2021/07/03 04:29:55;;;;;;;1.38;0.30;;;;;;;;;;5031770;28;20030;-71
2021/07/03 04:32:22;;;;;;;1.52;0.40;;;;;;;;;;5022839;28;21967;-72
2021/07/03 04:34:49;;;;;;;1.85;0.50;;;;;;;;;;5035441;28;20049;-72
2021/07/03 04:37:16;;;;;;;1.70;0.47;;;;;;;;;;5022538;28;20135;-72
2021/07/03 04:39:46;;;;;;;2.00;0.40;;;;;;;;;;5039339;28;20053;-72
2021/07/03 04:42:13;;;;;;;1.35;0.38;;;;;;;;;;5023658;28;20033;-72
2021/07/03 04:44:40;;;;;;;1.13;0.20;;;;;;;;;;5024231;28;20044;-72
2021/07/03 04:47:07;;;;;;;1.38;0.60;;;;;;;;;;5039768;28;20063;-72
2021/07/03 04:49:34;;;;;;;2.25;0.38;;;;;;;;;;5013928;28;20037;-72
2021/07/03 04:52:02;;;;;;;0.63;0.30;;;;;;;;;;5027392;28;20111;-73
2021/07/03 04:54:29;;;;;;;1.48;0.50;;;;;;;;;;5039394;28;20481;-74
2021/07/03 04:57:09;;;;;;;1.33;0.40;;;;;;;;;;5023702;28;20079;-72
2021/07/03 04:59:37;;;;;;;6.43;0.80;;;;;;;;;;5037946;28;20032;-71
2021/07/03 05:02:07;;;;;;;3.58;0.63;;;;;;;;;;5031291;28;20100;-71
2021/07/03 05:04:34;;;;;;;3.67;1.17;;;;;;;;;;5032848;28;20032;-71
2021/07/03 05:07:01;;;;;;;2.85;0.95;;;;;;;;;;5039032;28;20505;-70
2021/07/03 05:09:28;;;;;;;6.30;1.00;;;;;;;;;;5031815;28;20017;-71
2021/07/03 05:11:56;;;;;;;4.97;1.10;;;;;;;;;;5036203;28;20385;-70
2021/07/03 05:14:23;;;;;;;6.75;1.02;;;;;;;;;;5037390;28;20052;-71
2021/07/03 05:16:50;;;;;;;7.03;1.50;;;;;;;;;;5036066;28;20037;-71
2021/07/03 05:19:17;;;;;;;7.05;1.23;;;;;;;;;;5033027;28;20090;-71
2021/07/03 05:21:44;;;;;;;9.02;1.55;;;;;;;;;;5037912;28;20100;-71
2021/07/03 05:24:12;;;;;;;7.40;1.40;;;;;;;;;;5037278;28;20036;-72
2021/07/03 05:26:39;;;;;;;7.80;1.20;;;;;;;;;;5044271;28;20028;-71
2021/07/03 05:29:06;;;;;;;5.30;1.20;;;;;;;;;;5056017;28;20086;-71
2021/07/03 05:31:33;;;;;;;5.32;1.25;;;;;;;;;;5037561;28;20456;-71
2021/07/03 05:34:01;;;;;;;7.40;1.63;;;;;;;;;;5055585;28;20133;-71
2021/07/03 05:36:28;;;;;;;8.27;1.92;;;;;;;;;;5045303;28;20064;-70
2021/07/03 05:38:56;;;;;;;6.15;1.20;;;;;;;;;;5066838;28;20060;-71
2021/07/03 05:41:26;;;;;;;6.75;1.42;;;;;;;;;;5055836;28;20029;-71
2021/07/03 05:43:53;;;;;;;6.00;1.88;;;;;;;;;;5058083;28;20098;-73
2021/07/03 05:46:20;;;;;;;4.68;1.48;;;;;;;;;;5038189;28;20033;-73
2021/07/03 05:48:47;;;;;;;5.13;1.65;;;;;;;;;;5061904;28;20024;-73
2021/07/03 05:51:14;;;;;;;4.97;1.85;;;;;;;;;;5039904;28;20032;-74
2021/07/03 05:53:42;;;;;;;6.25;1.55;;;;;;;;;;5034307;28;20132;-73
2021/07/03 05:56:09;;;;;;;4.03;1.08;;;;;;;;;;5053425;28;20017;-74
2021/07/03 05:58:36;;;;;;;7.82;1.20;;;;;;;;;;5053112;28;20033;-71
2021/07/03 06:01:04;;;;;;;9.35;1.70;;;;;;;;;;5044625;28;20076;-71
2021/07/03 06:03:32;;;;;;;9.00;0.95;;;;;;;;;;5065881;28;20022;-71
2021/07/03 06:05:59;;;;;;;7.00;1.13;;;;;;;;;;5053777;28;20037;-72
2021/07/03 06:08:26;;;;;;;4.35;0.80;;;;;;;;;;5055925;28;20020;-71
2021/07/03 06:10:53;;;;;;;6.80;1.20;;;;;;;;;;5033501;28;20033;-71
2021/07/03 06:13:20;;;;;;;7.00;0.90;;;;;;;;;;5053652;28;20071;-71
2021/07/03 06:15:47;;;;;;;3.53;1.45;;;;;;;;;;5048002;28;20020;-71
2021/07/03 06:18:14;;;;;;;6.82;1.20;;;;;;;;;;5038146;28;20030;-71
2021/07/03 06:20:41;;;;;;;4.40;1.13;;;;;;;;;;5020118;28;20033;-71
2021/07/03 06:23:09;;;;;;;6.05;2.17;;;;;;;;;;5035435;28;20335;-71
2021/07/03 06:25:36;;;;;;;5.93;2.80;;;;;;;;;;5030896;28;20441;-71
2021/07/03 06:28:03;;;;;;;7.72;2.38;;;;;;;;;;5041080;28;20243;-71
2021/07/03 06:30:30;;;;;;;6.53;1.48;;;;;;;;;;5049424;28;20427;-71
2021/07/03 06:32:57;;;;;;;7.38;1.77;;;;;;;;;;5030277;28;20471;-71
2021/07/03 06:35:24;;;;;;;56.20;47.55;;;;;;;;;;5024250;28;20052;-71
2021/07/03 06:37:51;;;;;;;54.72;44.15;;;;;;;;;;5024722;28;20044;-71
2021/07/03 06:40:18;;;;;;;44.72;39.85;;;;;;;;;;5048708;28;20036;-71
2021/07/03 06:42:46;;;;;;;37.90;33.33;;;;;;;;;;5034612;28;20517;-71
2021/07/03 06:45:13;;;;;;;16.75;11.35;;;;;;;;;;5034902;28;20075;-71
2021/07/03 06:47:40;;;;;;;18.63;13.15;;;;;;;;;;5039734;28;20115;-71
2021/07/03 06:50:08;;;;;;;14.38;10.30;;;;;;;;;;5045358;28;20021;-71
2021/07/03 06:52:35;;;;;;;11.32;8.43;;;;;;;;;;5047801;28;20029;-71
2021/07/03 06:55:03;;;;;;;8.52;5.38;;;;;;;;;;5034846;28;20033;-71
2021/07/03 06:57:31;;;;;;;6.80;4.65;;;;;;;;;;5050890;28;20559;-71
2021/07/03 06:59:58;;;;;;;4.50;2.58;;;;;;;;;;5019359;28;20128;-71
2021/07/03 07:02:25;;;;;;;5.28;3.00;;;;;;;;;;5053194;28;20032;-71
2021/07/03 07:04:52;;;;;;;5.80;2.30;;;;;;;;;;5040984;28;20160;-71
2021/07/03 07:07:19;;;;;;;6.82;2.35;;;;;;;;;;5017515;28;20055;-72
2021/07/03 07:09:46;;;;;;;7.50;3.15;;;;;;;;;;5049631;28;20028;-72
2021/07/03 07:12:13;;;;;;;8.35;3.60;;;;;;;;;;5037528;28;20029;-71
2021/07/03 07:14:42;;;;;;;9.98;3.95;;;;;;;;;;5022824;28;20034;-71
2021/07/03 07:17:09;;;;;;;10.57;3.83;;;;;;;;;;5046261;28;20125;-71
2021/07/03 07:19:37;;;;;;;9.95;4.28;;;;;;;;;;5034457;28;20042;-71
2021/07/03 07:22:04;;;;;;;8.10;3.17;;;;;;;;;;5036996;28;20040;-71
2021/07/03 07:24:31;;;;;;;6.38;3.50;;;;;;;;;;5043872;28;20021;-71
2021/07/03 07:26:58;;;;;;;10.13;5.13;;;;;;;;;;5051874;28;20083;-72
2021/07/03 07:29:26;;;;;;;7.65;3.65;;;;;;;;;;5053636;28;20027;-71
2021/07/03 07:31:54;;;;;;;10.63;4.40;;;;;;;;;;5051328;28;20033;-71
2021/07/03 07:34:21;;;;;;;10.07;3.90;;;;;;;;;;5030260;28;20071;-71
2021/07/03 07:36:48;;;;;;;8.57;4.22;;;;;;;;;;5031147;28;20053;-71
2021/07/03 07:39:15;;;;;;;6.85;4.15;;;;;;;;;;5033388;28;20033;-71
2021/07/03 07:41:42;;;;;;;8.98;3.42;;;;;;;;;;5025541;28;21740;-71
2021/07/03 07:44:09;;;;;;;8.90;3.95;;;;;;;;;;5044780;28;20451;-71
2021/07/03 07:46:36;;;;;;;8.80;3.00;;;;;;;;;;5018520;28;20034;-71
2021/07/03 07:49:05;;;;;;;13.18;3.92;;;;;;;;;;5018326;28;20035;-71
2021/07/03 07:51:32;;;;;;;7.20;4.03;;;;;;;;;;5019124;28;20054;-72
2021/07/03 07:53:59;;;;;;;8.07;4.13;;;;;;;;;;5013245;28;20049;-71
2021/07/03 07:56:26;;;;;;;9.20;6.22;;;;;;;;;;5038855;28;20032;-72
2021/07/03 07:58:53;;;;;;;12.52;6.75;;;;;;;;;;5029013;28;20450;-71
2021/07/03 08:01:21;;;;;;;8.15;6.43;;;;;;;;;;5017867;28;20029;-71
2021/07/03 08:03:48;;;;;;;9.70;5.90;;;;;;;;;;5013642;28;20054;-71
2021/07/03 08:06:15;;;;;;;7.95;4.82;;;;;;;;;;5024206;28;20038;-70
2021/07/03 08:08:42;;;;;;;9.75;5.15;;;;;;;;;;5032800;28;20033;-71
2021/07/03 08:11:09;;;;;;;9.95;4.78;;;;;;;;;;5022418;28;20476;-71
2021/07/03 08:13:36;;;;;;;6.68;4.13;;;;;;;;;;5021893;28;20504;-71
2021/07/03 08:16:03;;;;;;;10.13;4.30;;;;;;;;;;5013155;28;20036;-71
2021/07/03 08:18:31;;;;;;;11.05;5.13;;;;;;;;;;5023873;28;20048;-70
2021/07/03 08:20:58;;;;;;;11.88;8.25;;;;;;;;;;5033259;28;20117;-70
2021/07/03 08:23:25;;;;;;;16.92;9.15;;;;;;;;;;5036573;28;20045;-70
2021/07/03 08:25:52;;;;;;;11.23;8.30;;;;;;;;;;5034792;28;20025;-71
2021/07/03 08:28:22;;;;;;;11.55;8.18;;;;;;;;;;5030519;28;20437;-71
2021/07/03 08:30:50;;;;;;;14.90;9.30;;;;;;;;;;5013438;28;20033;-71
2021/07/03 08:33:17;;;;;;;11.75;8.20;;;;;;;;;;5016622;28;20075;-71
2021/07/03 08:35:44;;;;;;;10.13;7.15;;;;;;;;;;5038782;28;20438;-73
2021/07/03 08:38:11;;;;;;;12.05;6.88;;;;;;;;;;5016697;28;20026;-73
2021/07/03 08:40:38;;;;;;;11.80;6.90;;;;;;;;;;5028530;28;20137;-73
2021/07/03 08:43:06;;;;;;;9.70;6.10;;;;;;;;;;5012679;28;20040;-72
2021/07/03 08:45:34;;;;;;;11.15;6.47;;;;;;;;;;5020007;28;20446;-73
2021/07/03 08:48:01;;;;;;;15.80;6.57;;;;;;;;;;5030858;28;20072;-73
2021/07/03 08:50:28;;;;;;;8.38;5.22;;;;;;;;;;5034874;28;20406;-72
2021/07/03 08:52:55;;;;;;;12.85;6.93;;;;;;;;;;5019967;28;20025;-71
2021/07/03 08:55:26;;;;;;;13.27;6.18;;;;;;;;;;5036928;28;20033;-71
2021/07/03 08:57:55;;;;;;;11.60;6.22;;;;;;;;;;5029911;28;20456;-72
2021/07/03 09:00:24;;;;;;;8.93;5.82;;;;;;;;;;5030756;28;20034;-72
2021/07/03 09:02:51;;;;;;;15.05;7.80;;;;;;;;;;5036274;28;20032;-72
2021/07/03 09:05:26;;;;;;;12.38;7.82;;;;;;;;;;5023903;28;20481;-72
2021/07/03 09:07:58;;;;;;;14.25;7.35;;;;;;;;;;5033561;28;20030;-72
2021/07/03 09:10:25;;;;;;;15.48;7.10;;;;;;;;;;5020629;28;20022;-73
2021/07/03 09:12:54;;;;;;;11.40;5.10;;;;;;;;;;5024892;28;20025;-72
2021/07/03 09:15:23;;;;;;;9.20;6.05;;;;;;;;;;5036329;28;20033;-72
2021/07/03 09:17:54;;;;;;;11.23;4.45;;;;;;;;;;5030022;28;20029;-73
2021/07/03 09:20:22;;;;;;;8.38;4.47;;;;;;;;;;5032004;28;20068;-73
2021/07/03 09:22:49;;;;;;;8.70;4.50;;;;;;;;;;5040858;28;20045;-73
2021/07/03 09:25:18;;;;;;;8.38;3.67;;;;;;;;;;5021201;28;20034;-72
2021/07/03 09:27:45;;;;;;;9.10;4.53;;;;;;;;;;5030965;28;20034;-72
2021/07/03 09:30:13;;;;;;;14.48;7.63;;;;;;;;;;5030391;28;20061;-72
2021/07/03 09:32:40;;;;;;;12.50;8.45;;;;;;;;;;5031563;28;20032;-72
2021/07/03 09:35:08;;;;;;;18.15;11.40;;;;;;;;;;5035179;28;20507;-72
2021/07/03 09:37:36;;;;;;;13.50;8.60;;;;;;;;;;5015120;28;20038;-73
2021/07/03 09:40:07;;;;;;;32.78;21.88;;;;;;;;;;5037818;28;20036;-73
2021/07/03 09:42:38;;;;;;;23.10;16.02;;;;;;;;;;5033401;28;20029;-73
2021/07/03 09:45:06;;;;;;;27.08;14.05;;;;;;;;;;5045255;28;20022;-72
2021/07/03 09:47:34;;;;;;;11.73;7.40;;;;;;;;;;5027647;28;20038;-73
2021/07/03 09:50:02;;;;;;;16.77;10.32;;;;;;;;;;5041772;28;20467;-72
2021/07/03 09:52:29;;;;;;;19.40;11.93;;;;;;;;;;5034550;28;20033;-73
2021/07/03 09:54:57;;;;;;;17.75;10.32;;;;;;;;;;5030166;28;20037;-74
2021/07/03 09:57:25;;;;;;;20.52;11.75;;;;;;;;;;5026527;28;20396;-74
2021/07/03 09:59:52;;;;;;;19.83;11.40;;;;;;;;;;5023703;28;20106;-73
2021/07/03 10:02:20;;;;;;;15.10;9.13;;;;;;;;;;5044249;28;20048;-73
2021/07/03 10:04:47;;;;;;;19.02;11.15;;;;;;;;;;5023851;28;20055;-73
2021/07/03 10:07:25;;;;;;;24.83;15.15;;;;;;;;;;5051064;28;20056;-72
2021/07/03 10:09:55;;;;;;;13.52;8.45;;;;;;;;;;5024084;28;20441;-72
2021/07/03 10:12:32;;;;;;;15.93;9.23;;;;;;;;;;5019970;28;20036;-73
2021/07/03 10:14:59;;;;;;;18.92;9.00;;;;;;;;;;5032897;28;20431;-73
2021/07/03 10:17:28;;;;;;;10.45;5.88;;;;;;;;;;5039918;28;20037;-73
2021/07/03 10:19:55;;;;;;;9.65;5.97;;;;;;;;;;5022847;28;20481;-73
2021/07/03 10:22:25;;;;;;;9.73;6.35;;;;;;;;;;5049033;28;20032;-73
2021/07/03 10:24:53;;;;;;;7.35;4.68;;;;;;;;;;5020599;28;20038;-73
2021/07/03 10:27:21;;;;;;;9.68;5.70;;;;;;;;;;5035451;28;20040;-73
2021/07/03 10:29:48;;;;;;;7.40;5.03;;;;;;;;;;5030931;28;20056;-73
2021/07/03 10:32:23;;;;;;;7.35;5.10;;;;;;;;;;5025309;28;20030;-73
2021/07/03 10:34:50;;;;;;;9.75;7.03;;;;;;;;;;5038511;28;20060;-72
2021/07/03 10:37:30;;;;;;;9.15;6.10;;;;;;;;;;5040646;28;20033;-72
2021/07/03 10:39:57;;;;;;;6.30;4.13;;;;;;;;;;5026151;28;20033;-70
2021/07/03 10:42:34;;;;;;;4.68;3.28;;;;;;;;;;5036600;28;20489;-71
2021/07/03 10:45:12;;;;;;;4.32;3.25;;;;;;;;;;5034564;28;20045;-72
2021/07/03 10:47:40;;;;;;;5.70;3.75;;;;;;;;;;5023425;28;20021;-71
2021/07/03 10:50:24;;;;;;;5.35;3.42;;;;;;;;;;5047856;28;20523;-72
2021/07/03 10:52:52;;;;;;;7.30;3.50;;;;;;;;;;5046992;28;20032;-73
2021/07/03 10:55:26;;;;;;;6.68;3.00;;;;;;;;;;5029943;28;20033;-72
2021/07/03 10:57:54;;;;;;;5.57;3.15;;;;;;;;;;5042220;28;20036;-73
2021/07/03 11:00:25;;;;;;;4.70;2.25;;;;;;;;;;5045213;28;20410;-72
2021/07/03 11:02:53;;;;;;;5.68;1.98;;;;;;;;;;5025730;28;20433;-73
2021/07/03 11:05:20;;;;;;;5.47;2.92;;;;;;;;;;5021580;28;20115;-72
2021/07/03 11:07:47;;;;;;;4.22;2.83;;;;;;;;;;5023671;28;20036;-73
2021/07/03 11:10:26;;;;;;;5.15;3.00;;;;;;;;;;5034718;28;20033;-72
2021/07/03 11:12:54;;;;;;;5.30;3.05;;;;;;;;;;5041927;28;20029;-73
2021/07/03 11:15:29;;;;;;;3.90;2.75;;;;;;;;;;5045212;28;20027;-72
2021/07/03 11:17:56;;;;;;;10.50;5.93;;;;;;;;;;5040452;28;20505;-72
2021/07/03 11:20:23;;;;;;;5.50;3.47;;;;;;;;;;5040287;28;20033;-73
2021/07/03 11:22:51;;;;;;;4.30;2.78;;;;;;;;;;5024707;28;20047;-72
2021/07/03 11:25:26;;;;;;;5.93;2.75;;;;;;;;;;5038541;28;20370;-73
2021/07/03 11:27:53;;;;;;;5.18;2.85;;;;;;;;;;5020810;28;20504;-73
2021/07/03 11:30:22;;;;;;;5.05;2.75;;;;;;;;;;5034304;28;20068;-72
2021/07/03 11:32:58;;;;;;;6.13;2.92;;;;;;;;;;5030755;28;20366;-73
2021/07/03 11:35:27;;;;;;;6.57;3.38;;;;;;;;;;5024068;28;20050;-72
2021/07/03 11:37:54;;;;;;;6.28;3.85;;;;;;;;;;5021360;28;20630;-71
2021/07/03 11:40:23;;;;;;;7.13;3.47;;;;;;;;;;5039205;28;20175;-71
2021/07/03 11:42:51;;;;;;;6.80;4.00;;;;;;;;;;5032946;28;20026;-71
2021/07/03 11:45:23;;;;;;;3.28;2.40;;;;;;;;;;5016201;28;20025;-72
2021/07/03 11:47:52;;;;;;;4.43;2.58;;;;;;;;;;5020971;28;20034;-72
2021/07/03 11:50:22;;;;;;;4.40;2.80;;;;;;;;;;5037596;28;20025;-72
2021/07/03 11:52:54;;;;;;;3.10;2.30;;;;;;;;;;5042657;28;20521;-72
2021/07/03 11:55:22;;;;;;;4.28;3.15;;;;;;;;;;5046550;28;20033;-72
2021/07/03 11:57:50;;;;;;;4.05;2.88;;;;;;;;;;5046422;28;20055;-72
2021/07/03 12:00:26;;;;;;;4.47;3.20;;;;;;;;;;5036388;28;20196;-72
2021/07/03 12:02:54;;;;;;;6.25;3.20;;;;;;;;;;5017348;28;20042;-72
2021/07/03 12:05:24;;;;;;;4.40;3.47;;;;;;;;;;5018764;28;20030;-72
2021/07/03 12:07:58;;;;;;;6.45;3.50;;;;;;;;;;5032135;28;20033;-73
2021/07/03 12:10:39;;;;;;;8.48;4.20;;;;;;;;;;5047696;28;20032;-73
2021/07/03 12:13:08;;;;;;;8.60;3.40;;;;;;;;;;5051140;28;20482;-73
2021/07/03 12:15:35;;;;;;;4.95;3.40;;;;;;;;;;5027138;28;20124;-72
2021/07/03 12:18:03;;;;;;;4.25;3.58;;;;;;;;;;5038057;28;20094;-74
2021/07/03 12:20:30;;;;;;;5.78;3.25;;;;;;;;;;5042301;28;20044;-73
2021/07/03 12:23:02;;;;;;;5.45;3.45;;;;;;;;;;5026929;28;20025;-73
2021/07/03 12:25:30;;;;;;;4.90;3.75;;;;;;;;;;5040117;28;20086;-74
2021/07/03 12:27:59;;;;;;;5.57;3.22;;;;;;;;;;5031001;28;20056;-71
2021/07/03 12:30:27;;;;;;;6.45;3.35;;;;;;;;;;5045610;28;20021;-71
2021/07/03 12:33:02;;;;;;;5.47;3.97;;;;;;;;;;5032386;28;20552;-70
2021/07/03 12:35:38;;;;;;;4.60;3.65;;;;;;;;;;5018489;28;20080;-73
2021/07/03 12:38:06;;;;;;;7.85;4.28;;;;;;;;;;5027910;28;20037;-73
2021/07/03 12:40:35;;;;;;;6.10;4.10;;;;;;;;;;5015535;28;20129;-73
2021/07/03 12:43:02;;;;;;;6.65;4.30;;;;;;;;;;5012922;28;20475;-73
2021/07/03 12:45:29;;;;;;;5.78;3.88;;;;;;;;;;5014175;28;20025;-73
2021/07/03 12:48:04;;;;;;;8.38;5.45;;;;;;;;;;5014652;28;20032;-73
2021/07/03 12:50:31;;;;;;;6.72;4.93;;;;;;;;;;5027475;28;20049;-73
2021/07/03 12:53:05;;;;;;;7.47;4.55;;;;;;;;;;5018516;28;20037;-73
2021/07/03 12:55:42;;;;;;;6.70;4.47;;;;;;;;;;5026156;28;20445;-73
2021/07/03 12:58:22;;;;;;;7.57;4.50;;;;;;;;;;5029975;28;20039;-73
2021/07/03 13:00:50;;;;;;;8.13;5.72;;;;;;;;;;5015662;28;20033;-73
2021/07/03 13:03:17;;;;;;;8.20;5.55;;;;;;;;;;5037568;28;20124;-73
2021/07/03 13:05:47;;;;;;;11.07;8.15;;;;;;;;;;5025352;28;20025;-73
2021/07/03 13:08:14;;;;;;;13.30;10.07;;;;;;;;;;5029801;28;20025;-73
2021/07/03 13:10:41;;;;;;;12.30;8.57;;;;;;;;;;5027593;28;20033;-73
2021/07/03 13:13:09;;;;;;;8.55;6.50;;;;;;;;;;5037497;28;20088;-72
2021/07/03 13:15:37;;;;;;;8.60;6.10;;;;;;;;;;5015335;28;20093;-74
2021/07/03 13:18:04;;;;;;;7.32;5.72;;;;;;;;;;5015703;28;20026;-72
2021/07/03 13:20:32;;;;;;;7.57;5.93;;;;;;;;;;5021911;28;20033;-72
2021/07/03 13:22:59;;;;;;;8.05;6.85;;;;;;;;;;5021046;28;20036;-72
2021/07/03 13:25:26;;;;;;;8.75;7.20;;;;;;;;;;5027377;28;20018;-72
2021/07/03 13:27:54;;;;;;;12.98;7.35;;;;;;;;;;5023828;28;20394;-72
2021/07/03 13:30:21;;;;;;;8.63;6.32;;;;;;;;;;5030708;28;20025;-72
2021/07/03 13:32:48;;;;;;;10.88;6.70;;;;;;;;;;5011230;28;20022;-72
2021/07/03 13:35:17;;;;;;;11.25;6.68;;;;;;;;;;5036793;28;20048;-74
2021/07/03 13:37:44;;;;;;;9.25;7.50;;;;;;;;;;5013317;28;20041;-72
2021/07/03 13:40:11;;;;;;;10.70;7.40;;;;;;;;;;5031862;28;20501;-72
2021/07/03 13:42:38;;;;;;;15.15;8.65;;;;;;;;;;5023960;28;20115;-72
2021/07/03 13:45:06;;;;;;;12.90;8.07;;;;;;;;;;5034546;28;20068;-74
2021/07/03 13:47:33;;;;;;;10.68;7.13;;;;;;;;;;5028161;28;20033;-73
2021/07/03 13:50:01;;;;;;;8.35;6.90;;;;;;;;;;5024135;28;20040;-73
2021/07/03 13:52:29;;;;;;;11.20;6.80;;;;;;;;;;5034622;28;20025;-73
2021/07/03 13:54:56;;;;;;;8.27;5.78;;;;;;;;;;5036731;28;20031;-72
2021/07/03 13:57:23;;;;;;;9.07;6.20;;;;;;;;;;5047183;28;20103;-72
2021/07/03 13:59:51;;;;;;;10.00;5.82;;;;;;;;;;5040574;28;20061;-73
2021/07/03 14:02:18;;;;;;;9.77;5.72;;;;;;;;;;5045449;28;20030;-72
2021/07/03 14:04:48;;;;;;;9.32;6.65;;;;;;;;;;5048105;28;20021;-72
2021/07/03 14:07:16;;;;;;;9.48;5.95;;;;;;;;;;5050359;28;20397;-72
2021/07/03 14:09:43;;;;;;;8.65;6.10;;;;;;;;;;5027573;28;20045;-71
2021/07/03 14:12:10;;;;;;;9.23;6.22;;;;;;;;;;5030338;28;20025;-72
2021/07/03 14:14:37;;;;;;;8.40;5.20;;;;;;;;;;5026076;28;20033;-72
2021/07/03 14:17:05;;;;;;;8.52;6.05;;;;;;;;;;5045624;28;20021;-72
2021/07/03 14:19:32;;;;;;;10.52;7.03;;;;;;;;;;5044122;28;20036;-72
2021/07/03 14:21:59;;;;;;;7.20;5.53;;;;;;;;;;5037185;28;20049;-71
2021/07/03 14:24:26;;;;;;;8.68;5.55;;;;;;;;;;5027914;28;20021;-72
2021/07/03 14:26:53;;;;;;;10.77;6.30;;;;;;;;;;5038467;28;20033;-72
2021/07/03 14:29:20;;;;;;;8.10;5.43;;;;;;;;;;5047580;28;20029;-72
2021/07/03 14:31:48;;;;;;;7.63;4.97;;;;;;;;;;5047784;28;20025;-72
2021/07/03 14:34:16;;;;;;;8.82;5.10;;;;;;;;;;5023952;28;20102;-72
2021/07/03 14:36:43;;;;;;;8.20;5.20;;;;;;;;;;5050993;28;20476;-73
2021/07/03 14:39:10;;;;;;;9.18;5.55;;;;;;;;;;5046930;28;20025;-72
2021/07/03 14:41:37;;;;;;;6.13;4.88;;;;;;;;;;5028753;28;20029;-72
2021/07/03 14:44:05;;;;;;;7.32;4.35;;;;;;;;;;5038803;28;20516;-72
2021/07/03 14:46:32;;;;;;;7.60;4.30;;;;;;;;;;5040561;28;20025;-71